Time;durP1;ratioP1;P1;durP2;ratioP2;P2;SDS_P1;SDS_P2;PMS_P1;PMS_P2;Temp;Humidity;BMP_temperature;BMP_pressure;BME280_temperature;BME280_humidity;BME280_pressure;Samples;Min_cycle;Max_cycle;Signal;HPM_P1;HPM_P2
2021/01/04 00:01:25;;;;;;;7.28;6.43;;;;;;;18.44;74.24;101591.34;5013965;28;20034;-76
2021/01/04 00:03:50;;;;;;;7.85;6.88;;;;;;;18.42;74.20;101595.81;5015125;28;20038;-76
2021/01/04 00:06:16;;;;;;;13.82;6.85;;;;;;;18.42;74.90;101587.78;5022281;28;20046;-76
2021/01/04 00:08:41;;;;;;;7.82;7.13;;;;;;;18.41;74.60;101581.53;5013979;28;20113;-76
2021/01/04 00:11:06;;;;;;;7.10;6.38;;;;;;;18.41;74.47;101584.22;5013756;28;20041;-75
2021/01/04 00:13:32;;;;;;;18.52;6.50;;;;;;;18.43;74.98;101574.41;5020685;28;20040;-77
2021/01/04 00:15:57;;;;;;;11.90;6.45;;;;;;;18.47;74.50;101580.63;5033750;28;20076;-77
2021/01/04 00:18:22;;;;;;;10.40;6.50;;;;;;;18.46;74.62;101570.81;5020368;28;20180;-77
2021/01/04 00:20:47;;;;;;;14.65;6.97;;;;;;;18.45;74.10;101555.66;5031777;28;20099;-77
2021/01/04 00:23:13;;;;;;;8.75;6.63;;;;;;;18.46;74.75;101555.66;5031332;28;20119;-78
2021/01/04 00:25:38;;;;;;;6.80;6.20;;;;;;;18.47;74.14;101553.88;5017169;28;20074;-77
2021/01/04 00:28:03;;;;;;;7.22;5.95;;;;;;;18.44;74.25;101554.81;5032195;28;20052;-75
2021/01/04 00:30:29;;;;;;;7.82;6.75;;;;;;;18.45;74.10;101551.22;5024153;28;20045;-77
2021/01/04 00:32:54;;;;;;;8.35;6.50;;;;;;;18.45;74.69;101551.22;5014828;28;20221;-77
2021/01/04 00:35:19;;;;;;;6.78;6.00;;;;;;;18.48;74.12;101561.91;5013379;28;20042;-77
2021/01/04 00:37:45;;;;;;;8.73;6.05;;;;;;;18.47;74.10;101553.88;5013203;28;20046;-77
2021/01/04 00:40:10;;;;;;;7.07;6.28;;;;;;;18.48;74.15;101563.69;5013280;28;20077;-77
2021/01/04 00:42:35;;;;;;;7.07;6.38;;;;;;;18.47;74.46;101573.50;5029473;28;20055;-75
2021/01/04 00:45:01;;;;;;;10.38;6.28;;;;;;;18.45;74.78;101579.72;5023730;28;20060;-77
2021/01/04 00:47:26;;;;;;;12.68;6.25;;;;;;;18.43;74.76;101597.59;5031810;28;20037;-77
2021/01/04 00:49:51;;;;;;;10.48;5.93;;;;;;;18.41;74.26;101594.03;5019367;28;20100;-76
2021/01/04 00:52:17;;;;;;;10.60;6.22;;;;;;;18.40;74.95;101597.59;5012740;28;20045;-77
2021/01/04 00:54:42;;;;;;;13.07;6.20;;;;;;;18.39;74.35;101596.69;5022613;28;20128;-76
2021/01/04 00:57:09;;;;;;;6.88;5.97;;;;;;;18.40;74.93;101600.25;5014733;28;20041;-75
2021/01/04 00:59:35;;;;;;;8.45;6.20;;;;;;;18.36;74.44;101580.69;5031270;28;20045;-77
2021/01/04 01:02:00;;;;;;;13.35;6.20;;;;;;;18.37;74.84;101569.09;5032754;28;20429;-76
2021/01/04 01:04:25;;;;;;;11.75;5.80;;;;;;;18.37;74.75;101560.19;5012923;28;20116;-77
2021/01/04 01:06:51;;;;;;;10.07;6.22;;;;;;;18.35;74.87;101551.25;5012861;28;20039;-76
2021/01/04 01:09:16;;;;;;;6.38;5.75;;;;;;;18.36;75.15;101539.69;5012439;28;20052;-76
2021/01/04 01:11:41;;;;;;;9.40;5.38;;;;;;;18.35;74.49;101536.13;5029552;28;20514;-76
2021/01/04 01:14:07;;;;;;;9.23;5.93;;;;;;;18.36;74.59;101545.91;5031290;28;20045;-76
2021/01/04 01:16:32;;;;;;;6.30;5.00;;;;;;;18.34;74.71;101539.69;5029520;28;20049;-76
2021/01/04 01:18:57;;;;;;;6.50;5.90;;;;;;;18.32;74.72;101546.81;5011455;28;20092;-76
2021/01/04 01:21:23;;;;;;;6.25;5.65;;;;;;;18.33;75.01;101544.13;5023946;28;20037;-77
2021/01/04 01:23:48;;;;;;;6.00;5.47;;;;;;;18.32;74.56;101546.81;5030939;28;20053;-76
2021/01/04 01:26:33;;;;;;;5.95;5.35;;;;;;;18.35;74.62;101532.56;5030961;28;20099;-76
2021/01/04 01:28:59;;;;;;;6.18;5.65;;;;;;;18.34;74.59;101518.28;5022842;28;20050;-76
2021/01/04 01:31:24;;;;;;;7.90;5.63;;;;;;;18.32;74.58;101518.28;5025037;28;20091;-77
2021/01/04 01:33:49;;;;;;;6.03;5.43;;;;;;;18.32;75.01;101518.28;5029544;28;20124;-77
2021/01/04 01:36:15;;;;;;;6.85;5.50;;;;;;;18.37;74.44;101517.41;5031737;28;20191;-78
2021/01/04 01:38:40;;;;;;;5.93;5.32;;;;;;;18.39;74.29;101524.50;5030712;28;20116;-77
2021/01/04 01:41:05;;;;;;;8.45;5.43;;;;;;;18.39;74.60;101512.91;5022963;28;20143;-77
2021/01/04 01:43:31;;;;;;;5.43;4.93;;;;;;;18.37;74.78;101512.94;5012138;28;20049;-78
2021/01/04 01:45:56;;;;;;;7.20;5.13;;;;;;;18.37;74.65;101506.72;5032119;28;20473;-77
2021/01/04 01:48:21;;;;;;;5.25;4.72;;;;;;;18.38;74.43;101505.81;5031498;28;20045;-77
2021/01/04 01:50:47;;;;;;;5.40;4.90;;;;;;;18.36;74.69;101497.78;5029916;28;20441;-77
2021/01/04 01:53:12;;;;;;;9.27;5.30;;;;;;;18.40;74.39;101496.88;5030214;28;20044;-78
2021/01/04 01:55:37;;;;;;;9.20;5.03;;;;;;;18.37;74.57;101506.72;5018928;28;20045;-77
2021/01/04 01:58:03;;;;;;;6.47;5.78;;;;;;;18.37;74.74;101509.38;5029977;28;20041;-77
2021/01/04 02:00:28;;;;;;;5.40;4.88;;;;;;;18.35;74.77;101513.84;5029602;28;20394;-77
2021/01/04 02:02:53;;;;;;;5.15;4.70;;;;;;;18.35;74.32;101519.19;5028826;28;20424;-76
2021/01/04 02:05:18;;;;;;;6.50;5.03;;;;;;;18.37;74.25;101523.63;5012512;28;20410;-77
2021/01/04 02:07:44;;;;;;;6.28;4.93;;;;;;;18.37;74.57;101526.31;5028637;28;20049;-77
2021/01/04 02:10:11;;;;;;;7.22;5.03;;;;;;;18.35;74.86;101514.72;5027576;28;20096;-76
2021/01/04 02:12:36;;;;;;;8.05;4.30;;;;;;;18.33;74.25;101506.72;5021030;28;20045;-76
2021/01/04 02:15:02;;;;;;;5.22;4.60;;;;;;;18.36;74.32;101515.63;5023931;28;20449;-76
2021/01/04 02:17:27;;;;;;;7.03;4.70;;;;;;;18.36;74.94;101515.63;5030880;28;20478;-76
2021/01/04 02:19:52;;;;;;;5.07;4.68;;;;;;;18.36;74.16;101513.84;5027562;28;20512;-76
2021/01/04 02:22:18;;;;;;;5.38;4.88;;;;;;;18.35;74.37;101505.81;5020860;28;20507;-76
2021/01/04 02:24:43;;;;;;;6.00;4.72;;;;;;;18.37;74.60;101506.72;5012821;28;20057;-76
2021/01/04 02:27:08;;;;;;;9.30;4.82;;;;;;;18.35;74.68;101504.03;5025413;28;20053;-74
2021/01/04 02:29:34;;;;;;;5.07;4.60;;;;;;;18.34;74.71;101504.94;5029911;28;20125;-76
2021/01/04 02:31:59;;;;;;;8.63;4.45;;;;;;;18.35;74.17;101508.50;5031019;28;20061;-76
2021/01/04 02:34:24;;;;;;;4.45;4.05;;;;;;;18.32;74.52;101509.38;5019578;28;20046;-75
2021/01/04 02:36:50;;;;;;;4.72;4.22;;;;;;;18.32;74.68;101506.72;5029541;28;20076;-76
2021/01/04 02:39:15;;;;;;;5.05;4.53;;;;;;;18.30;74.30;101504.06;5026817;28;20045;-75
2021/01/04 02:41:40;;;;;;;7.43;4.40;;;;;;;18.31;74.80;101497.78;5026520;28;20053;-76
2021/01/04 02:44:06;;;;;;;5.80;4.00;;;;;;;18.31;74.37;101496.94;5011103;28;20049;-75
2021/01/04 02:46:31;;;;;;;5.55;4.22;;;;;;;18.32;74.50;101491.56;5011368;28;20034;-76
2021/01/04 02:48:56;;;;;;;4.72;4.32;;;;;;;18.33;74.13;101498.69;5026865;28;20175;-76
2021/01/04 02:51:22;;;;;;;4.72;4.32;;;;;;;18.31;74.89;101491.59;5028333;28;20041;-76
2021/01/04 02:53:47;;;;;;;4.82;4.35;;;;;;;18.30;74.23;101490.69;5027246;28;20175;-77
2021/01/04 02:56:12;;;;;;;4.63;4.22;;;;;;;18.28;74.40;101492.47;5029489;28;20120;-77
2021/01/04 02:58:37;;;;;;;5.05;4.65;;;;;;;18.28;74.31;101486.25;5030388;28;20048;-76
2021/01/04 03:01:03;;;;;;;4.63;4.18;;;;;;;18.28;74.53;101486.25;5013760;28;20379;-76
2021/01/04 03:03:28;;;;;;;7.43;4.32;;;;;;;18.30;74.61;101490.69;5013705;28;20407;-77
2021/01/04 03:05:54;;;;;;;6.03;3.95;;;;;;;18.33;74.29;101481.75;5014585;28;20189;-75
2021/01/04 03:08:19;;;;;;;4.65;4.25;;;;;;;18.32;74.49;101478.19;5015238;28;20514;-75
2021/01/04 03:10:44;;;;;;;7.65;4.10;;;;;;;18.35;74.15;101471.06;5001774;28;20042;-77
2021/01/04 03:13:10;;;;;;;5.28;3.55;;;;;;;18.29;74.89;101470.19;5011619;28;20168;-77
2021/01/04 03:15:35;;;;;;;4.22;3.80;;;;;;;18.31;74.71;101472.88;5015019;28;20081;-77
2021/01/04 03:18:00;;;;;;;4.30;3.88;;;;;;;18.28;74.70;101460.41;5014019;28;20034;-77
2021/01/04 03:20:26;;;;;;;4.80;4.38;;;;;;;18.30;74.37;101458.63;5014415;28;20045;-78
2021/01/04 03:22:51;;;;;;;4.82;4.40;;;;;;;18.31;74.21;101448.81;5014094;28;20029;-78
2021/01/04 03:25:16;;;;;;;6.25;3.83;;;;;;;18.27;74.75;101437.22;5013553;28;20061;-77
2021/01/04 03:27:41;;;;;;;5.00;3.95;;;;;;;18.31;74.26;101432.78;5013435;28;20399;-77
2021/01/04 03:30:07;;;;;;;4.45;4.05;;;;;;;18.28;74.59;101432.78;5007646;28;20411;-77
2021/01/04 03:32:32;;;;;;;4.68;3.95;;;;;;;18.28;74.49;101436.34;4993907;28;20036;-77
2021/01/04 03:34:57;;;;;;;5.68;3.83;;;;;;;18.30;74.31;101425.66;5011416;28;20042;-77
2021/01/04 03:37:23;;;;;;;9.07;4.20;;;;;;;18.28;74.19;101428.31;5014354;28;20069;-77
2021/01/04 03:39:48;;;;;;;4.40;4.00;;;;;;;18.26;74.31;101424.75;5009910;28;20077;-76
2021/01/04 03:42:13;;;;;;;5.30;4.07;;;;;;;18.35;74.06;101430.97;5001828;28;20065;-76
2021/01/04 03:44:39;;;;;;;12.15;3.83;;;;;;;18.36;74.24;101430.06;5012351;28;20041;-76
2021/01/04 03:47:04;;;;;;;8.68;4.03;;;;;;;18.35;74.50;101428.28;5022034;28;20087;-74
2021/01/04 03:49:29;;;;;;;7.13;3.58;;;;;;;18.35;73.92;101433.63;5033241;28;20030;-76
2021/01/04 03:51:55;;;;;;;8.07;3.53;;;;;;;18.32;74.68;101431.84;5033809;28;20046;-76
2021/01/04 03:54:20;;;;;;;4.65;3.53;;;;;;;18.32;73.99;101431.84;5022762;28;20066;-74
2021/01/04 03:56:45;;;;;;;13.85;3.65;;;;;;;18.36;74.39;101438.97;5000588;28;20686;-76
2021/01/04 03:59:11;;;;;;;6.38;3.80;;;;;;;18.36;74.47;101435.41;5013386;28;20042;-76
2021/01/04 04:01:36;;;;;;;3.67;3.00;;;;;;;18.34;74.56;101440.75;5012832;28;20038;-77
2021/01/04 04:04:01;;;;;;;4.38;3.50;;;;;;;18.32;74.08;101431.84;5013530;28;20045;-76
2021/01/04 04:06:27;;;;;;;5.28;3.30;;;;;;;18.31;74.03;101430.97;5013101;28;20686;-76
2021/01/04 04:08:52;;;;;;;5.80;3.20;;;;;;;18.30;74.40;101434.56;5023965;28;20386;-76
2021/01/04 04:11:17;;;;;;;7.05;2.60;;;;;;;18.30;73.96;101431.00;4998153;28;20069;-75
2021/01/04 04:13:43;;;;;;;4.38;2.88;;;;;;;18.31;74.14;101436.31;5012951;28;20042;-76
2021/01/04 04:16:08;;;;;;;3.55;3.25;;;;;;;18.28;74.57;101433.66;5012926;28;20100;-75
2021/01/04 04:18:33;;;;;;;3.92;3.47;;;;;;;18.29;74.12;101431.88;5022567;28;20045;-75
2021/01/04 04:20:59;;;;;;;11.00;3.40;;;;;;;18.26;74.44;101437.22;5006735;28;20045;-76
2021/01/04 04:23:24;;;;;;;3.17;2.88;;;;;;;18.24;74.18;101437.25;5011222;28;20132;-75
2021/01/04 04:25:49;;;;;;;3.95;3.60;;;;;;;18.24;74.50;101429.25;5012222;28;20046;-76
2021/01/04 04:28:14;;;;;;;7.30;3.30;;;;;;;18.25;74.41;101440.78;5022520;28;20041;-77
2021/01/04 04:30:40;;;;;;;3.92;3.53;;;;;;;18.26;74.54;101440.78;5011878;28;20485;-77
2021/01/04 04:33:05;;;;;;;9.48;3.28;;;;;;;18.26;74.29;101440.78;5011423;28;20504;-76
2021/01/04 04:35:30;;;;;;;6.93;3.65;;;;;;;18.28;74.70;101439.00;5013613;28;20468;-77
2021/01/04 04:37:56;;;;;;;20.00;3.88;;;;;;;18.37;74.92;101437.19;5011449;28;20503;-75
2021/01/04 04:40:21;;;;;;;35.92;3.95;;;;;;;18.46;74.16;101443.34;5013345;28;20216;-76
2021/01/04 04:42:46;;;;;;;25.80;3.38;;;;;;;18.33;74.26;101453.25;5012902;28;20065;-75
2021/01/04 04:45:12;;;;;;;20.30;3.50;;;;;;;18.25;74.28;101460.41;5012209;28;20045;-76
2021/01/04 04:47:37;;;;;;;8.27;3.58;;;;;;;18.23;74.80;101467.56;5015713;28;20045;-76
2021/01/04 04:50:02;;;;;;;7.60;3.10;;;;;;;18.22;74.39;101449.75;5016063;28;20426;-75
2021/01/04 04:52:28;;;;;;;8.63;2.97;;;;;;;18.22;74.75;101454.19;5012275;28;20434;-76
2021/01/04 04:54:53;;;;;;;12.20;3.28;;;;;;;18.22;74.59;101455.09;5013031;28;20410;-75
2021/01/04 04:57:18;;;;;;;4.78;2.63;;;;;;;18.20;74.75;101454.19;5012566;28;20388;-75
2021/01/04 04:59:44;;;;;;;37.38;3.00;;;;;;;18.24;74.49;101455.97;5014762;28;20049;-77
2021/01/04 05:02:09;;;;;;;12.88;3.20;;;;;;;18.27;75.14;101455.94;5025494;28;20127;-78
2021/01/04 05:04:34;;;;;;;11.57;2.85;;;;;;;18.26;74.87;101461.28;5033144;28;20041;-77
2021/01/04 05:07:00;;;;;;;16.30;3.10;;;;;;;18.28;74.83;101463.06;5019605;28;20048;-77
2021/01/04 05:09:25;;;;;;;4.07;2.95;;;;;;;18.27;74.14;101461.28;5012090;28;20046;-76
2021/01/04 05:11:50;;;;;;;7.03;2.53;;;;;;;18.26;74.62;101463.97;5024334;28;20087;-76
2021/01/04 05:14:17;;;;;;;4.03;2.78;;;;;;;18.29;74.35;101477.31;5031540;28;20037;-75
2021/01/04 05:16:42;;;;;;;9.10;3.13;;;;;;;18.31;74.09;101479.06;5029213;28;20089;-77
2021/01/04 05:19:07;;;;;;;5.10;3.15;;;;;;;18.31;73.87;101480.91;5032136;28;20553;-76
2021/01/04 05:21:33;;;;;;;4.47;2.65;;;;;;;18.32;74.01;101482.66;5031601;28;20053;-77
2021/01/04 05:23:58;;;;;;;7.15;2.85;;;;;;;18.28;74.17;101480.91;5031410;28;20075;-76
2021/01/04 05:26:23;;;;;;;7.68;2.92;;;;;;;18.26;74.23;101475.53;5025561;28;22651;-76
2021/01/04 05:28:49;;;;;;;5.63;3.13;;;;;;;18.25;74.20;101484.47;5027608;28;20042;-74
2021/01/04 05:31:14;;;;;;;15.18;2.70;;;;;;;18.25;74.41;101468.41;5031104;28;20041;-77
2021/01/04 05:33:39;;;;;;;6.30;2.60;;;;;;;18.31;74.02;101473.72;5032107;28;20037;-77
2021/01/04 05:36:05;;;;;;;14.00;2.33;;;;;;;18.31;74.35;101487.09;5024235;28;20037;-74
2021/01/04 05:38:30;;;;;;;22.27;3.47;;;;;;;18.36;74.43;101475.50;5031740;28;20094;-75
2021/01/04 05:40:55;;;;;;;6.20;2.90;;;;;;;18.35;74.31;101489.78;5031293;28;20045;-74
2021/01/04 05:43:21;;;;;;;3.78;3.05;;;;;;;18.34;74.16;101480.88;5031637;28;20041;-75
2021/01/04 05:45:46;;;;;;;6.72;3.13;;;;;;;18.32;74.62;101482.66;5031436;28;20492;-75
2021/01/04 05:48:12;;;;;;;4.90;3.10;;;;;;;18.30;74.60;101480.00;5030785;28;20469;-76
2021/01/04 05:50:37;;;;;;;11.38;3.03;;;;;;;18.30;74.94;101485.34;5030619;28;20049;-75
2021/01/04 05:53:02;;;;;;;7.40;2.47;;;;;;;18.33;74.58;101484.44;5030719;28;20050;-76
2021/01/04 05:55:27;;;;;;;14.98;3.10;;;;;;;18.37;74.10;101486.22;5031743;28;20116;-79
2021/01/04 05:57:53;;;;;;;19.67;2.60;;;;;;;18.33;74.36;101479.06;5030750;28;20068;-77
2021/01/04 06:00:18;;;;;;;3.00;2.70;;;;;;;18.34;74.59;101480.88;5029948;28;20434;-77
2021/01/04 06:02:43;;;;;;;7.72;3.22;;;;;;;18.29;74.34;101478.22;5030169;28;20407;-77
2021/01/04 06:05:09;;;;;;;11.43;3.25;;;;;;;18.32;73.94;101482.66;5030055;28;20406;-77
2021/01/04 06:07:34;;;;;;;7.50;3.08;;;;;;;18.30;74.62;101488.03;5029856;28;20080;-77
2021/01/04 06:10:00;;;;;;;4.68;2.83;;;;;;;18.28;74.11;101468.41;5009060;28;20054;-77
2021/01/04 06:12:25;;;;;;;6.03;2.50;;;;;;;18.29;74.47;101463.97;4991079;28;20045;-77
2021/01/04 06:14:50;;;;;;;3.83;2.75;;;;;;;18.30;74.50;101457.72;5002725;28;20102;-77
2021/01/04 06:17:16;;;;;;;2.47;2.25;;;;;;;18.28;74.17;101451.50;5019488;28;20384;-76
2021/01/04 06:19:41;;;;;;;7.65;3.20;;;;;;;18.31;74.08;101443.47;5024612;28;20054;-77
2021/01/04 06:22:06;;;;;;;3.58;2.53;;;;;;;18.30;74.02;101463.06;5010748;28;20069;-76
2021/01/04 06:24:31;;;;;;;3.13;2.40;;;;;;;18.30;74.62;101463.97;5022847;28;20061;-77
2021/01/04 06:26:57;;;;;;;3.03;2.72;;;;;;;18.26;74.44;101472.88;5026591;28;20398;-78
2021/01/04 06:29:22;;;;;;;10.38;2.58;;;;;;;18.34;74.15;101467.50;5000876;28;20069;-78
2021/01/04 06:31:47;;;;;;;3.13;2.22;;;;;;;18.35;74.31;101476.41;5020483;28;20068;-77
2021/01/04 06:34:13;;;;;;;3.60;2.63;;;;;;;18.30;74.40;101480.00;5009086;28;20073;-77
2021/01/04 06:36:38;;;;;;;4.60;2.40;;;;;;;18.28;74.28;101476.44;5031256;28;20041;-77
2021/01/04 06:39:03;;;;;;;9.40;2.53;;;;;;;18.31;74.00;101491.59;5030080;28;20037;-76
2021/01/04 06:41:29;;;;;;;3.28;2.28;;;;;;;18.33;74.26;101487.09;5028859;28;20099;-76
2021/01/04 06:43:54;;;;;;;2.67;2.20;;;;;;;18.30;73.93;101482.69;5030175;28;20036;-76
2021/01/04 06:46:20;;;;;;;19.25;2.75;;;;;;;18.42;74.16;101478.16;5030887;28;20045;-78
2021/01/04 06:48:45;;;;;;;27.17;3.25;;;;;;;18.55;74.02;101463.81;5031408;28;20121;-78
2021/01/04 06:51:10;;;;;;;15.45;2.70;;;;;;;18.62;73.84;101454.91;5030894;28;20033;-77
2021/01/04 06:53:35;;;;;;;24.95;2.92;;;;;;;18.47;74.25;101454.94;5030514;28;20506;-75
2021/01/04 06:56:01;;;;;;;47.38;3.63;;;;;;;18.54;74.48;101456.69;5030373;28;20513;-75
2021/01/04 06:58:26;;;;;;;49.72;4.22;;;;;;;18.66;74.34;101441.50;5029007;28;20454;-76
2021/01/04 07:00:51;;;;;;;48.08;5.15;;;;;;;18.61;73.98;101410.31;5032071;28;20168;-79
2021/01/04 07:03:17;;;;;;;67.85;4.80;;;;;;;18.51;75.09;101376.50;5016292;28;20188;-75
2021/01/04 07:05:42;;;;;;;40.92;4.50;;;;;;;18.41;74.72;101370.31;5009133;28;20574;-75
2021/01/04 07:08:07;;;;;;;18.45;3.47;;;;;;;18.34;74.95;101349.88;5023717;28;20044;-72
2021/01/04 07:10:33;;;;;;;22.63;3.92;;;;;;;18.26;74.82;101317.84;5012791;28;20050;-75
2021/01/04 07:12:58;;;;;;;19.60;3.38;;;;;;;18.24;74.63;101300.94;5025918;28;20043;-74
2021/01/04 07:15:23;;;;;;;12.52;3.20;;;;;;;18.22;74.77;101305.41;5030145;28;20029;-75
2021/01/04 07:17:49;;;;;;;14.60;4.43;;;;;;;18.23;74.49;101303.63;5011631;28;20054;-75
2021/01/04 07:20:14;;;;;;;15.25;3.67;;;;;;;18.24;74.15;101321.44;5013937;28;20617;-74
2021/01/04 07:22:39;;;;;;;11.32;3.15;;;;;;;18.25;74.32;101334.75;5023096;28;20517;-75
2021/01/04 07:25:05;;;;;;;11.88;3.95;;;;;;;18.26;74.63;101365.06;5030032;28;20041;-71
2021/01/04 07:27:30;;;;;;;13.13;3.05;;;;;;;18.25;74.30;101360.59;5028199;28;20042;-70
2021/01/04 07:29:55;;;;;;;16.40;3.63;;;;;;;18.24;74.35;101361.53;5029534;28;20108;-73
2021/01/04 07:32:21;;;;;;;9.40;3.60;;;;;;;18.23;74.01;101366.00;5024441;28;20132;-73
2021/01/04 07:34:46;;;;;;;14.32;3.33;;;;;;;18.21;74.36;101370.44;5029293;28;20051;-73
2021/01/04 07:37:12;;;;;;;11.85;4.30;;;;;;;18.22;74.22;101360.66;5029148;28;20383;-73
2021/01/04 07:39:37;;;;;;;10.68;4.28;;;;;;;18.19;74.04;101361.53;5024228;28;20056;-74
2021/01/04 07:42:02;;;;;;;14.88;5.18;;;;;;;18.19;74.20;101353.53;5022485;28;20133;-73
2021/01/04 07:44:28;;;;;;;12.10;6.40;;;;;;;18.18;73.65;101356.22;5019800;28;20114;-74
2021/01/04 07:46:53;;;;;;;16.52;5.97;;;;;;;18.16;73.95;101348.22;5018008;28;20096;-77
2021/01/04 07:49:18;;;;;;;14.88;5.93;;;;;;;18.17;73.73;101350.00;5017008;28;20128;-77
2021/01/04 07:51:44;;;;;;;21.02;8.75;;;;;;;18.20;73.72;101341.03;5025001;28;20080;-77
2021/01/04 07:54:09;;;;;;;18.05;7.30;;;;;;;18.17;73.56;101346.44;5028678;28;20083;-76
2021/01/04 07:56:34;;;;;;;20.92;8.18;;;;;;;18.23;73.13;101333.91;5021585;28;20041;-77
2021/01/04 07:59:00;;;;;;;20.73;9.07;;;;;;;18.35;72.93;101316.00;5024434;28;20038;-77
2021/01/04 08:01:25;;;;;;;56.17;9.80;;;;;;;18.41;73.07;101322.19;5019501;28;20052;-76
2021/01/04 08:03:50;;;;;;;51.53;10.13;;;;;;;18.42;73.40;101318.63;5022264;28;20052;-78
2021/01/04 08:06:15;;;;;;;44.15;9.70;;;;;;;18.32;73.48;101300.88;5026987;28;20125;-77
2021/01/04 08:08:41;;;;;;;32.35;9.93;;;;;;;18.23;73.78;101306.28;5028984;28;20136;-77
2021/01/04 08:11:06;;;;;;;36.05;10.35;;;;;;;18.22;73.43;101304.50;5024780;28;20068;-77
2021/01/04 08:13:31;;;;;;;30.88;10.80;;;;;;;18.20;73.42;101307.19;5030103;28;20068;-77
2021/01/04 08:15:57;;;;;;;27.60;9.32;;;;;;;18.17;73.94;101307.22;5031769;28;20041;-78
2021/01/04 08:18:22;;;;;;;22.65;9.60;;;;;;;18.17;73.50;101299.22;4994609;28;20045;-78
2021/01/04 08:20:47;;;;;;;24.92;9.60;;;;;;;18.15;73.46;101298.31;5009861;28;20049;-78
2021/01/04 08:23:13;;;;;;;19.75;8.70;;;;;;;18.17;73.78;101291.19;5010051;28;20115;-78
2021/01/04 08:25:38;;;;;;;17.98;9.70;;;;;;;18.14;73.61;101280.50;5012048;28;20042;-77
2021/01/04 08:28:03;;;;;;;15.20;9.00;;;;;;;18.15;73.81;101284.97;5009004;28;20650;-78
2021/01/04 08:30:29;;;;;;;14.60;8.68;;;;;;;18.14;73.84;101293.88;5005735;28;20061;-78
2021/01/04 08:32:54;;;;;;;29.17;8.70;;;;;;;18.14;73.70;101276.94;5006809;28;20122;-77
2021/01/04 08:35:19;;;;;;;17.05;8.70;;;;;;;18.13;73.64;101284.06;5012721;28;20092;-77
2021/01/04 08:37:45;;;;;;;18.90;8.52;;;;;;;18.13;73.24;101289.41;5011880;28;20034;-78
2021/01/04 08:40:10;;;;;;;23.50;8.82;;;;;;;18.13;73.75;101273.38;5010047;28;20050;-77
2021/01/04 08:42:35;;;;;;;19.52;8.95;;;;;;;18.13;73.10;101284.06;5013362;28;20041;-77
2021/01/04 08:45:01;;;;;;;17.70;8.05;;;;;;;18.13;73.04;101288.53;5025165;28;20095;-78
2021/01/04 08:47:26;;;;;;;14.85;8.55;;;;;;;18.12;73.48;101282.28;5024305;28;20118;-78
2021/01/04 08:49:51;;;;;;;15.13;8.98;;;;;;;18.10;73.76;101278.78;5014518;28;20057;-77
2021/01/04 08:52:17;;;;;;;14.68;8.05;;;;;;;18.11;73.44;101269.88;5004955;28;20038;-77
2021/01/04 08:54:42;;;;;;;14.68;8.65;;;;;;;18.11;73.82;101268.97;5006640;28;20053;-78
2021/01/04 08:57:07;;;;;;;17.00;8.88;;;;;;;18.10;73.59;101269.88;5011881;28;20141;-76
2021/01/04 08:59:33;;;;;;;16.80;8.20;;;;;;;18.10;73.57;101259.19;5010548;28;20549;-77
2021/01/04 09:01:58;;;;;;;12.52;7.55;;;;;;;18.10;73.56;101253.84;5009114;28;20052;-77
2021/01/04 09:04:24;;;;;;;15.68;8.07;;;;;;;18.12;73.68;101254.69;5009981;28;20046;-77
2021/01/04 09:06:49;;;;;;;14.45;7.80;;;;;;;18.11;73.82;101248.50;5009713;28;20124;-77
2021/01/04 09:09:14;;;;;;;13.13;8.05;;;;;;;18.10;73.29;101225.31;5009460;28;20121;-78
2021/01/04 09:11:40;;;;;;;15.82;8.05;;;;;;;18.10;73.46;101213.75;5012874;28;20155;-77
2021/01/04 09:14:05;;;;;;;22.85;8.25;;;;;;;18.10;73.59;101203.94;5028554;28;20321;-78
2021/01/04 09:16:30;;;;;;;34.05;8.98;;;;;;;18.18;73.29;101223.47;5017886;28;20403;-75
2021/01/04 09:18:56;;;;;;;23.27;8.63;;;;;;;18.14;73.59;101203.00;5016703;28;20410;-77
2021/01/04 09:21:21;;;;;;;26.02;7.97;;;;;;;18.14;73.19;101211.03;5016783;28;20033;-76
2021/01/04 09:23:46;;;;;;;28.58;8.85;;;;;;;18.15;73.42;101210.13;5025216;28;20461;-75
2021/01/04 09:26:12;;;;;;;19.00;8.45;;;;;;;18.14;73.36;101192.31;5011387;28;20180;-76
2021/01/04 09:28:37;;;;;;;24.83;9.05;;;;;;;18.14;73.42;101200.34;5015687;28;20111;-80
2021/01/04 09:31:02;;;;;;;28.23;9.10;;;;;;;18.15;72.86;101210.13;5004663;28;20052;-84
2021/01/04 09:33:27;;;;;;;22.42;9.93;;;;;;;18.14;73.23;101205.69;5003347;28;20050;-82
2021/01/04 09:35:53;;;;;;;19.60;11.25;;;;;;;18.14;72.96;101194.09;5010687;28;20097;-77
2021/01/04 09:38:18;;;;;;;25.45;11.70;;;;;;;18.13;72.73;101195.88;5021952;28;20049;-82
2021/01/04 09:40:44;;;;;;;28.45;11.93;;;;;;;18.13;72.81;101189.66;5018974;28;20520;-85
2021/01/04 09:43:10;;;;;;;23.17;11.93;;;;;;;18.13;72.30;101171.84;5017861;28;20507;-77
2021/01/04 09:45:35;;;;;;;22.85;11.50;;;;;;;18.12;71.95;101186.09;5025028;28;20049;-79
2021/01/04 09:48:01;;;;;;;26.08;12.55;;;;;;;18.13;72.18;101185.19;5020601;28;20046;-80
2021/01/04 09:50:26;;;;;;;23.35;12.50;;;;;;;18.14;72.04;101175.41;5018384;28;20449;-81
2021/01/04 09:52:52;;;;;;;21.45;12.85;;;;;;;18.13;72.22;101176.28;5020692;28;20481;-80
2021/01/04 09:55:17;;;;;;;21.10;12.45;;;;;;;18.13;71.60;101178.97;5018584;28;20052;-85
2021/01/04 09:57:42;;;;;;;21.35;12.52;;;;;;;18.13;71.86;101184.31;5022937;28;20044;-77
2021/01/04 10:00:08;;;;;;;24.42;13.35;;;;;;;18.16;71.87;101232.41;5014085;28;20057;-76
2021/01/04 10:02:34;;;;;;;83.30;16.00;;;;;;;18.29;71.00;101168.13;5019526;28;20049;-73
2021/01/04 10:04:59;;;;;;;83.82;17.13;;;;;;;18.28;71.66;101161.00;5008955;28;20042;-73
2021/01/04 10:07:25;;;;;;;101.55;17.63;;;;;;;18.26;71.45;101149.44;5013444;28;20091;-74
2021/01/04 10:09:50;;;;;;;75.85;17.58;;;;;;;18.17;71.29;101146.00;5029649;28;20045;-75
2021/01/04 10:12:16;;;;;;;69.65;17.40;;;;;;;18.18;71.65;101143.28;5015867;28;20042;-74
2021/01/04 10:14:42;;;;;;;58.25;16.10;;;;;;;18.16;71.90;101145.09;5004770;28;20129;-75
2021/01/04 10:17:07;;;;;;;44.97;16.02;;;;;;;18.14;71.58;101136.19;5010204;28;20134;-74
2021/01/04 10:19:32;;;;;;;52.03;16.45;;;;;;;18.11;72.04;101130.91;5008534;28;20053;-75
2021/01/04 10:21:58;;;;;;;39.03;16.08;;;;;;;18.10;71.65;101123.78;5008781;28;20046;-75
2021/01/04 10:24:23;;;;;;;41.78;16.00;;;;;;;18.09;71.69;101129.13;5009207;28;20436;-75
2021/01/04 10:26:50;;;;;;;45.28;15.45;;;;;;;18.09;71.92;101122.00;5008224;28;20038;-75
2021/01/04 10:29:15;;;;;;;42.03;15.13;;;;;;;18.12;71.87;101115.72;5010176;28;20506;-75
2021/01/04 10:31:40;;;;;;;40.70;14.85;;;;;;;18.09;71.58;101127.34;5009826;28;20054;-74
2021/01/04 10:34:06;;;;;;;33.22;16.08;;;;;;;18.09;71.96;101130.03;5007323;28;20050;-75
2021/01/04 10:36:31;;;;;;;38.83;14.00;;;;;;;18.08;71.88;101124.69;4997930;28;20117;-75
2021/01/04 10:38:56;;;;;;;28.10;14.38;;;;;;;18.07;71.95;101129.16;4991038;28;20046;-75
2021/01/04 10:41:22;;;;;;;33.42;15.02;;;;;;;18.08;71.93;101114.00;5007141;28;20064;-75
2021/01/04 10:43:47;;;;;;;31.02;14.10;;;;;;;18.07;71.90;101104.22;5008471;28;20439;-75
2021/01/04 10:46:12;;;;;;;36.28;15.15;;;;;;;18.07;71.85;101099.75;5025579;28;20481;-74
2021/01/04 10:48:38;;;;;;;26.42;14.02;;;;;;;18.07;72.18;101106.88;5025752;28;20038;-76
2021/01/04 10:51:04;;;;;;;37.03;14.18;;;;;;;18.06;71.91;101099.75;5028006;28;20041;-75
2021/01/04 10:53:29;;;;;;;30.42;14.00;;;;;;;18.07;72.10;101080.16;5029753;28;20072;-75
2021/01/04 10:55:54;;;;;;;31.63;13.48;;;;;;;18.06;71.80;101068.59;5027743;28;20509;-75
2021/01/04 10:58:20;;;;;;;32.40;13.15;;;;;;;18.07;71.99;101081.03;5027756;28;20395;-75
2021/01/04 11:00:45;;;;;;;25.45;12.48;;;;;;;18.10;71.83;101077.47;5028315;28;20402;-75
2021/01/04 11:03:10;;;;;;;30.65;12.32;;;;;;;18.09;72.35;101060.56;5019301;28;20465;-75
2021/01/04 11:05:36;;;;;;;22.30;12.35;;;;;;;18.05;72.18;101048.09;5015789;28;20053;-75
2021/01/04 11:08:01;;;;;;;25.77;12.40;;;;;;;18.06;71.89;101052.56;5026007;28;20045;-76
2021/01/04 11:10:26;;;;;;;24.05;12.07;;;;;;;18.07;72.10;101046.31;5028402;28;20442;-75